Time;durP1;ratioP1;P1;durP2;ratioP2;P2;SDS_P1;SDS_P2;PMS_P1;PMS_P2;Temp;Humidity;BMP_temperature;BMP_pressure;BME280_temperature;BME280_humidity;BME280_pressure;Samples;Min_cycle;Max_cycle;Signal;HPM_P1;HPM_P2
2022/08/17 00:01:54;;;;;;;14.20;7.20;;;;;;;18.33;100.00;99464.12;104829;1274;61060;-66
2022/08/17 00:04:43;;;;;;;11.10;6.60;;;;;;;18.31;100.00;99464.37;104833;1272;73044;-67
2022/08/17 00:07:37;;;;;;;12.10;6.80;;;;;;;18.30;100.00;99465.59;104916;1274;67480;-67
2022/08/17 00:10:26;;;;;;;13.40;7.80;;;;;;;18.27;100.00;99468.46;104815;1272;74366;-66
2022/08/17 00:13:27;;;;;;;14.00;7.30;;;;;;;18.24;100.00;99469.52;104910;1274;59747;-65
2022/08/17 00:16:30;;;;;;;13.90;7.10;;;;;;;18.21;100.00;99466.63;104656;1273;60995;-68
2022/08/17 00:19:41;;;;;;;14.10;7.70;;;;;;;18.19;100.00;99465.20;104938;1274;74030;-66
2022/08/17 00:22:29;;;;;;;13.70;7.20;;;;;;;18.17;100.00;99463.91;105027;1274;68360;-67
2022/08/17 00:25:22;;;;;;;12.10;7.00;;;;;;;18.15;100.00;99466.64;104829;1274;73180;-67
2022/08/17 00:28:13;;;;;;;12.20;7.20;;;;;;;18.13;100.00;99467.95;104820;1274;61052;-68
2022/08/17 00:31:05;;;;;;;13.10;7.80;;;;;;;18.11;100.00;99468.50;104845;1274;59297;-67
2022/08/17 00:33:54;;;;;;;12.50;8.20;;;;;;;18.09;100.00;99475.05;104789;1274;72813;-65
2022/08/17 00:36:42;;;;;;;15.90;8.30;;;;;;;18.06;100.00;99470.01;104882;1274;69642;-68
2022/08/17 00:39:30;;;;;;;13.20;9.20;;;;;;;18.03;100.00;99470.40;105216;1274;73216;-66
2022/08/17 00:42:18;;;;;;;14.70;8.90;;;;;;;17.99;100.00;99473.45;104961;1274;60161;-66
2022/08/17 00:45:11;;;;;;;14.80;9.50;;;;;;;17.99;100.00;99476.26;104941;1274;59863;-65
2022/08/17 00:47:58;;;;;;;15.60;9.60;;;;;;;17.99;100.00;99477.63;105233;1274;73874;-65
2022/08/17 00:50:58;;;;;;;13.90;9.10;;;;;;;17.98;100.00;99477.02;104871;1274;66492;-66
2022/08/17 00:53:58;;;;;;;13.50;8.30;;;;;;;17.99;100.00;99473.13;105117;1273;72558;-65
2022/08/17 00:56:59;;;;;;;14.60;9.00;;;;;;;18.01;100.00;99477.55;105085;1274;60315;-65
2022/08/17 00:59:57;;;;;;;12.10;8.00;;;;;;;18.00;100.00;99479.10;104745;1274;61024;-65
2022/08/17 01:02:55;;;;;;;12.20;8.30;;;;;;;18.06;100.00;99477.20;101164;1273;2002691;-66
2022/08/17 01:05:47;;;;;;;12.20;7.70;;;;;;;18.06;100.00;99475.41;104967;1274;68543;-67
2022/08/17 01:08:37;;;;;;;14.40;8.90;;;;;;;18.03;100.00;99471.60;104880;1274;74476;-66
2022/08/17 01:11:28;;;;;;;15.40;9.90;;;;;;;18.01;100.00;99473.61;104801;1274;60285;-65
2022/08/17 01:14:18;;;;;;;14.70;9.70;;;;;;;-11.19;79.80;79576.27;104250;1274;1002186;-67
2022/08/17 01:17:07;;;;;;;15.70;9.50;;;;;;;18.04;100.00;99471.09;103505;1274;2001987;-65
2022/08/17 01:19:55;;;;;;;15.60;10.20;;;;;;;18.03;100.00;99468.20;104883;1274;66292;-64
2022/08/17 01:22:44;;;;;;;15.10;9.50;;;;;;;18.00;100.00;99471.95;104229;1274;1003093;-65
2022/08/17 01:25:32;;;;;;;17.10;10.40;;;;;;;-11.18;79.80;79580.95;104188;1274;1011244;-64
2022/08/17 01:28:22;;;;;;;16.70;10.20;;;;;;;18.00;100.00;99475.54;104793;1274;62142;-66
2022/08/17 01:31:37;;;;;;;16.50;9.60;;;;;;;-69.56;39.40;39790.10;103855;1274;1002834;-64
2022/08/17 01:34:25;;;;;;;13.60;9.60;;;;;;;-98.79;19.20;19895.00;102579;1274;1013869;-66
2022/08/17 01:37:39;;;;;;;13.40;8.60;;;;;;;18.01;100.00;99478.70;105012;1274;74418;-66
2022/08/17 01:40:44;;;;;;;13.10;8.70;;;;;;;18.00;100.00;99479.10;104831;1274;60282;-66
2022/08/17 01:43:46;;;;;;;15.10;9.80;;;;;;;17.98;100.00;99475.63;105039;1274;60548;-66
2022/08/17 01:46:36;;;;;;;14.90;9.70;;;;;;;-11.25;79.80;79578.36;104593;1273;1001983;-66
2022/08/17 01:49:24;;;;;;;15.90;9.80;;;;;;;-128.00;-1.00;-1.00;102142;1273;1011935;-64
2022/08/17 01:52:12;;;;;;;14.90;9.60;;;;;;;-128.00;-1.00;-1.00;102132;1273;1015780;-66
2022/08/17 01:55:04;;;;;;;14.10;9.20;;;;;;;-40.43;59.60;59681.87;103878;1273;1002796;-65
2022/08/17 01:57:51;;;;;;;16.70;8.70;;;;;;;-98.80;19.20;19893.02;102671;1273;1047435;-63
2022/08/17 02:00:42;;;;;;;13.60;9.00;;;;;;;-40.46;59.60;59680.98;102636;1273;1835011;-69
2022/08/17 02:03:47;;;;;;;14.50;8.40;;;;;;;17.84;100.00;99470.56;104923;1273;68757;-65
2022/08/17 02:06:46;;;;;;;13.90;8.50;;;;;;;17.82;100.00;99469.05;104911;1273;72972;-65
2022/08/17 02:09:42;;;;;;;12.70;7.70;;;;;;;17.77;100.00;99471.02;104814;1273;61583;-67
2022/08/17 02:12:39;;;;;;;15.40;9.20;;;;;;;17.75;100.00;99472.23;104844;1273;61080;-66
2022/08/17 02:15:27;;;;;;;14.70;8.70;;;;;;;17.70;100.00;99469.99;104671;1273;74009;-63
2022/08/17 02:18:16;;;;;;;13.10;8.30;;;;;;;17.67;100.00;99473.33;104815;1273;68663;-64
2022/08/17 02:21:05;;;;;;;13.40;8.70;;;;;;;17.65;100.00;99471.35;104720;1273;72807;-65
2022/08/17 02:23:55;;;;;;;14.00;8.60;;;;;;;17.62;100.00;99470.60;104680;1273;59258;-65
2022/08/17 02:26:43;;;;;;;15.60;8.30;;;;;;;17.60;100.00;99469.60;104692;1273;59402;-65
2022/08/17 02:29:31;;;;;;;17.30;9.20;;;;;;;17.60;100.00;99471.73;104715;1273;73855;-66
2022/08/17 02:32:23;;;;;;;17.20;9.50;;;;;;;17.59;100.00;99464.23;104905;1273;69865;-66
2022/08/17 02:35:20;;;;;;;14.20;8.60;;;;;;;17.56;100.00;99467.05;104715;1273;73478;-66
2022/08/17 02:38:09;;;;;;;12.50;8.20;;;;;;;17.55;100.00;99464.50;105067;1273;61087;-65
2022/08/17 02:40:58;;;;;;;15.30;9.00;;;;;;;17.54;100.00;99466.19;104872;1273;62157;-65
2022/08/17 02:43:47;;;;;;;13.40;9.20;;;;;;;17.52;100.00;99464.75;104899;1273;73040;-67
2022/08/17 02:46:36;;;;;;;16.20;8.90;;;;;;;17.51;100.00;99466.17;105274;1273;68457;-66
2022/08/17 02:49:27;;;;;;;15.60;9.70;;;;;;;17.51;100.00;99467.05;105119;1274;74272;-65
2022/08/17 02:52:20;;;;;;;14.80;9.10;;;;;;;17.54;100.00;99462.09;104778;1274;59315;-65
2022/08/17 02:55:36;;;;;;;14.40;8.90;;;;;;;17.57;100.00;99463.70;104835;1274;61102;-64
2022/08/17 02:58:25;;;;;;;13.80;9.20;;;;;;;17.60;100.00;99463.55;104736;1274;73921;-64
2022/08/17 03:01:23;;;;;;;16.00;8.80;;;;;;;17.59;100.00;99464.36;105038;1274;68594;-65
2022/08/17 03:04:11;;;;;;;13.50;8.70;;;;;;;17.63;100.00;99467.70;104986;1274;73495;-63
2022/08/17 03:06:59;;;;;;;13.80;8.70;;;;;;;17.64;100.00;99465.17;104937;1272;59763;-65
2022/08/17 03:09:47;;;;;;;14.50;8.80;;;;;;;17.65;100.00;99465.27;104919;1274;59817;-66
2022/08/17 03:12:40;;;;;;;15.10;8.90;;;;;;;17.66;100.00;99472.66;104979;1271;73981;-65
2022/08/17 03:15:33;;;;;;;14.80;9.30;;;;;;;17.67;100.00;99474.16;104686;1274;69596;-67
2022/08/17 03:18:22;;;;;;;13.20;9.10;;;;;;;17.69;100.00;99480.44;104932;1274;72398;-67
2022/08/17 03:21:12;;;;;;;13.40;9.40;;;;;;;17.71;100.00;99485.52;105163;1274;59780;-67
2022/08/17 03:24:01;;;;;;;17.60;10.80;;;;;;;17.74;100.00;99483.96;105056;1274;61094;-66
2022/08/17 03:26:55;;;;;;;14.80;9.40;;;;;;;17.78;100.00;99481.05;105049;1274;73979;-67
2022/08/17 03:29:43;;;;;;;15.50;9.50;;;;;;;17.81;100.00;99477.58;104717;1274;68660;-66
2022/08/17 03:32:42;;;;;;;15.70;9.10;;;;;;;17.83;100.00;99478.08;104677;1274;73461;-67
2022/08/17 03:35:32;;;;;;;13.10;8.80;;;;;;;17.82;100.00;99477.61;104860;1274;59296;-70
2022/08/17 03:38:20;;;;;;;13.00;8.90;;;;;;;17.82;100.00;99483.90;104883;1274;62043;-65
2022/08/17 03:41:09;;;;;;;13.80;8.90;;;;;;;17.83;100.00;99483.80;104954;1274;73989;-66
2022/08/17 03:43:58;;;;;;;14.50;9.20;;;;;;;17.84;100.00;99484.80;105005;1274;69779;-65
2022/08/17 03:59:21;;;;;;;15.10;8.90;;;;;;;17.91;100.00;99494.74;104688;1274;67940;-66
2022/08/17 04:02:31;;;;;;;15.20;9.30;;;;;;;17.92;100.00;99490.89;104641;1273;72781;-70
2022/08/17 04:05:20;;;;;;;14.90;9.50;;;;;;;17.95;100.00;99490.35;105468;1271;60226;-66
2022/08/17 04:08:11;;;;;;;14.10;9.30;;;;;;;17.97;100.00;99495.25;104887;1271;62075;-66
2022/08/17 04:11:00;;;;;;;14.10;9.50;;;;;;;18.02;100.00;99499.64;104987;1271;73414;-66
2022/08/17 04:13:48;;;;;;;14.20;9.50;;;;;;;18.07;100.00;99499.91;104931;1274;69557;-64
2022/08/17 04:16:36;;;;;;;16.90;10.10;;;;;;;18.13;100.00;99501.91;104915;1274;73504;-64
2022/08/17 04:19:24;;;;;;;14.70;9.80;;;;;;;18.16;100.00;99503.83;104866;1273;59352;-69
2022/08/17 04:22:12;;;;;;;16.90;9.60;;;;;;;-11.06;79.80;79606.30;104182;1271;1001456;-68
2022/08/17 04:25:20;;;;;;;16.10;9.30;;;;;;;18.22;100.00;99508.03;105139;1271;73779;-67
2022/08/17 04:28:08;;;;;;;14.80;9.70;;;;;;;18.23;100.00;99510.39;104850;1271;67625;-68
2022/08/17 04:31:03;;;;;;;14.30;9.10;;;;;;;18.24;100.00;99513.53;104840;1271;74560;-64
2022/08/17 04:33:54;;;;;;;14.30;9.00;;;;;;;18.25;100.00;99511.96;104778;1271;59281;-66
2022/08/17 04:36:42;;;;;;;14.90;8.80;;;;;;;18.30;100.00;99515.25;106293;1271;60550;-65
2022/08/17 04:39:36;;;;;;;14.30;9.40;;;;;;;18.35;100.00;99516.94;105123;1271;73782;-66
2022/08/17 04:42:24;;;;;;;15.00;9.00;;;;;;;18.42;100.00;99520.73;104905;1271;68606;-67
2022/08/17 04:45:12;;;;;;;13.40;9.10;;;;;;;18.48;100.00;99513.49;105945;1271;71533;-68
2022/08/17 04:48:01;;;;;;;13.70;8.00;;;;;;;18.57;100.00;99517.31;105094;1271;61247;-68
2022/08/17 04:50:50;;;;;;;14.50;8.50;;;;;;;18.68;100.00;99516.69;105009;1271;61145;-66
2022/08/17 04:53:43;;;;;;;13.50;8.70;;;;;;;18.84;100.00;99516.20;104906;1271;73523;-68
2022/08/17 04:56:34;;;;;;;13.10;8.30;;;;;;;19.04;100.00;99515.79;104850;1271;68636;-67
2022/08/17 04:59:22;;;;;;;13.20;8.80;;;;;;;19.25;100.00;99519.70;104825;1271;74553;-69
2022/08/17 05:02:12;;;;;;;12.60;8.70;;;;;;;19.46;100.00;99522.52;104818;1271;59295;-65
2022/08/17 05:05:01;;;;;;;13.70;8.20;;;;;;;19.68;100.00;99524.08;104943;1271;60309;-68
2022/08/17 05:07:55;;;;;;;12.80;8.40;;;;;;;19.88;100.00;99526.30;105236;1271;72975;-69
2022/08/17 05:10:43;;;;;;;12.00;7.30;;;;;;;20.08;99.58;99527.20;105027;1271;67493;-71
2022/08/17 05:13:32;;;;;;;12.10;7.30;;;;;;;20.25;97.70;99530.90;105202;1274;73534;-69
2022/08/17 05:16:22;;;;;;;14.90;7.80;;;;;;;20.34;95.82;99529.39;104734;1274;61278;-72
2022/08/17 05:19:12;;;;;;;12.60;7.30;;;;;;;20.38;95.35;99527.38;105137;1274;61840;-69
2022/08/17 05:22:06;;;;;;;11.10;7.30;;;;;;;20.43;94.53;99528.46;104763;1274;74064;-72
2022/08/17 05:24:54;;;;;;;10.70;7.20;;;;;;;20.38;93.47;99530.60;106401;1272;68962;-69
2022/08/17 05:27:44;;;;;;;14.00;7.90;;;;;;;20.28;93.98;99539.11;104987;1274;73803;-70
2022/08/17 05:30:34;;;;;;;12.20;7.20;;;;;;;20.24;94.84;99540.98;106005;1274;61317;-71
2022/08/17 05:33:30;;;;;;;12.10;7.40;;;;;;;20.24;94.84;99543.27;105096;1274;61476;-71
2022/08/17 05:36:18;;;;;;;12.60;7.70;;;;;;;20.27;95.19;99542.98;108383;1273;73993;-72
2022/08/17 05:39:26;;;;;;;12.90;8.00;;;;;;;20.37;94.96;99549.02;106897;1274;68010;-72
2022/08/17 05:42:18;;;;;;;15.20;8.30;;;;;;;20.49;94.78;99550.58;105104;1274;72852;-71
2022/08/17 05:45:08;;;;;;;14.20;8.10;;;;;;;20.75;93.59;99550.49;107686;1273;59921;-72
2022/08/17 05:47:56;;;;;;;13.30;8.10;;;;;;;20.89;92.62;99550.00;108320;1273;59268;-70
2022/08/17 05:51:26;;;;;;;15.20;8.30;;;;;;;20.99;92.10;99553.85;106412;1272;72922;-72
2022/08/17 05:54:28;;;;;;;12.10;8.00;;;;;;;21.19;92.02;99557.39;105568;1273;67670;-73
2022/08/17 05:57:42;;;;;;;12.40;7.90;;;;;;;21.36;91.19;99561.30;105047;1274;74356;-72
2022/08/17 06:01:25;;;;;;;13.70;7.60;;;;;;;21.52;90.32;99562.63;105270;1274;59270;-73
2022/08/17 06:04:45;;;;;;;11.60;6.70;;;;;;;21.64;89.27;99568.00;105144;1273;60573;-72
2022/08/17 06:07:39;;;;;;;10.60;6.60;;;;;;;21.68;88.13;99562.55;105177;1274;70938;-75
2022/08/17 06:10:51;;;;;;;10.70;6.20;;;;;;;21.72;86.12;99567.44;105246;1274;69900;-74
2022/08/17 06:13:49;;;;;;;12.70;6.50;;;;;;;21.82;86.60;99567.09;104893;1274;74395;-72
2022/08/17 06:16:45;;;;;;;11.10;6.50;;;;;;;21.88;85.94;99564.98;105255;1273;60228;-72
2022/08/17 06:19:53;;;;;;;11.90;7.40;;;;;;;21.95;86.09;99576.20;105226;1274;59259;-71
2022/08/17 06:22:50;;;;;;;10.80;6.70;;;;;;;22.06;86.02;99579.17;104943;1274;73921;-72
2022/08/17 06:25:50;;;;;;;10.60;7.20;;;;;;;22.25;86.05;99581.70;104863;1274;66824;-69
2022/08/17 06:28:49;;;;;;;12.70;7.10;;;;;;;22.41;85.56;99582.95;104956;1274;72922;-68
2022/08/17 06:31:39;;;;;;;12.40;7.10;;;;;;;22.54;84.95;99577.31;105195;1274;60192;-68
2022/08/17 06:34:28;;;;;;;12.20;6.60;;;;;;;22.63;83.97;99575.30;105192;1272;59535;-69
2022/08/17 06:37:47;;;;;;;12.00;7.20;;;;;;;22.89;83.45;99570.08;105113;1274;72392;-71
2022/08/17 06:40:54;;;;;;;10.50;6.90;;;;;;;24.02;79.93;99571.25;105116;1273;68607;-70
2022/08/17 06:43:55;;;;;;;10.80;6.20;;;;;;;25.10;75.26;99567.13;105192;1274;72605;-68
2022/08/17 06:46:49;;;;;;;10.40;6.10;;;;;;;25.96;71.86;99574.14;105019;1272;59623;-71
2022/08/17 06:50:05;;;;;;;13.40;6.30;;;;;;;26.84;67.56;99573.94;105053;1274;59390;-72
2022/08/17 06:53:24;;;;;;;10.70;5.30;;;;;;;28.01;63.73;99570.27;104974;1274;74319;-70
2022/08/17 06:56:29;;;;;;;9.70;5.20;;;;;;;29.08;59.30;99566.48;105902;1271;66772;-70
2022/08/17 07:00:19;;;;;;;9.20;5.00;;;;;;;30.22;55.95;99564.19;105570;1271;72864;-71
2022/08/17 07:03:07;;;;;;;10.30;5.20;;;;;;;31.12;52.20;99557.79;105078;1271;59705;-68
2022/08/17 07:06:16;;;;;;;10.90;5.00;;;;;;;31.72;49.79;99557.52;105156;1271;60445;-71
2022/08/17 07:09:26;;;;;;;10.60;4.70;;;;;;;32.35;48.12;99556.27;104937;1271;71090;-70
2022/08/17 07:12:22;;;;;;;9.80;5.00;;;;;;;32.88;46.66;99560.51;105431;1271;67601;-69
2022/08/17 07:15:41;;;;;;;9.80;4.80;;;;;;;33.41;44.30;99560.59;105274;1271;72871;-70
2022/08/17 07:18:32;;;;;;;10.80;4.90;;;;;;;33.84;43.07;99567.31;104940;1271;59385;-71
2022/08/17 07:21:24;;;;;;;9.40;4.10;;;;;;;34.33;41.60;99567.35;104798;1274;60812;-71
2022/08/17 07:24:43;;;;;;;7.90;4.00;;;;;;;34.76;40.34;99567.74;105051;1271;73770;-69
2022/08/17 07:27:44;;;;;;;10.00;4.40;;;;;;;35.18;39.70;99570.70;104921;1271;66270;-68
2022/08/17 07:30:44;;;;;;;9.30;4.40;;;;;;;35.42;38.25;99568.77;105262;1271;72790;-71
2022/08/17 07:33:35;;;;;;;9.00;4.40;;;;;;;35.72;37.82;99562.48;105233;1268;59428;-71
2022/08/17 07:36:25;;;;;;;7.40;4.20;;;;;;;35.94;37.58;99562.62;105070;1271;60002;-69
2022/08/17 07:39:26;;;;;;;9.70;4.30;;;;;;;36.10;37.22;99562.08;105129;1271;73781;-69
2022/08/17 07:42:14;;;;;;;8.60;4.20;;;;;;;36.38;36.53;99564.14;104903;1270;66833;-70
2022/08/17 07:48:17;;;;;;;9.10;4.80;;;;;;;36.62;35.77;99558.94;105071;1271;71614;-70
2022/08/17 07:48:24;;;;;;;13.50;5.50;;;;;;;37.04;35.08;99559.60;105010;1271;59753;-67
2022/08/17 07:51:26;;;;;;;8.20;3.60;;;;;;;37.40;34.14;99554.52;104880;1271;61023;-69
2022/08/17 07:54:14;;;;;;;8.30;3.90;;;;;;;37.10;33.37;99552.09;105224;1271;73878;-69
2022/08/17 07:57:14;;;;;;;8.40;4.20;;;;;;;37.26;33.49;99547.52;104805;1271;69320;-70
2022/08/17 08:00:18;;;;;;;9.00;4.50;;;;;;;37.35;32.97;99543.72;104996;1271;74234;-70
2022/08/17 08:03:30;;;;;;;9.10;4.80;;;;;;;37.79;32.79;99544.73;105144;1271;59660;-70
2022/08/17 08:06:25;;;;;;;8.00;4.10;;;;;;;38.18;31.90;99547.63;104960;1271;60312;-71
2022/08/17 08:09:27;;;;;;;9.60;4.30;;;;;;;38.30;31.54;99544.11;105153;1271;72219;-69
2022/08/17 08:12:28;;;;;;;8.80;4.40;;;;;;;38.50;31.37;99544.98;105187;1271;68809;-70
2022/08/17 08:15:32;;;;;;;9.10;4.00;;;;;;;38.75;31.20;99551.23;105378;1270;72871;-68
2022/08/17 08:18:32;;;;;;;10.00;4.50;;;;;;;38.83;30.64;99547.21;105412;1271;59391;-70
2022/08/17 08:22:04;;;;;;;8.50;4.00;;;;;;;38.93;30.80;99544.83;105149;1271;60287;-68
2022/08/17 08:25:24;;;;;;;9.50;4.10;;;;;;;39.24;30.23;99548.34;105282;1271;73708;-69
2022/08/17 08:28:49;;;;;;;10.00;4.40;;;;;;;39.48;29.58;99553.73;105131;1271;69568;-70
2022/08/17 08:32:05;;;;;;;9.10;4.10;;;;;;;39.50;29.76;99553.05;105246;1270;74432;-69
2022/08/17 08:35:05;;;;;;;8.80;4.00;;;;;;;39.69;29.53;99555.40;105027;1271;59278;-69
2022/08/17 08:38:09;;;;;;;8.40;3.80;;;;;;;39.73;29.38;99559.91;107508;1271;59829;-68
2022/08/17 08:41:37;;;;;;;9.20;4.10;;;;;;;39.91;29.29;99560.33;108483;1271;70844;-68
2022/08/17 08:44:49;;;;;;;8.20;3.90;;;;;;;40.12;28.76;99553.60;105535;1271;68782;-70
2022/08/17 08:48:12;;;;;;;8.80;4.00;;;;;;;40.22;28.64;99549.64;105077;1271;74453;-70
2022/08/17 08:51:41;;;;;;;9.00;4.20;;;;;;;40.19;28.36;99551.58;105531;1271;59209;-68
2022/08/17 08:54:34;;;;;;;9.80;4.30;;;;;;;40.21;28.68;99554.60;104788;1271;59675;-69
2022/08/17 08:57:35;;;;;;;8.60;4.10;;;;;;;40.16;28.55;99561.25;105303;1271;72141;-67
2022/08/17 09:00:26;;;;;;;9.70;5.50;;;;;;;39.96;28.51;99559.54;105382;1271;69581;-69
2022/08/17 09:03:33;;;;;;;7.80;4.30;;;;;;;39.94;28.46;99566.20;107343;1271;73451;-68
2022/08/17 09:07:14;;;;;;;8.50;4.00;;;;;;;39.88;28.59;99568.15;105169;1271;59404;-68
2022/08/17 09:10:11;;;;;;;9.60;4.30;;;;;;;39.84;28.66;99565.90;105062;1271;60987;-68
2022/08/17 09:13:21;;;;;;;9.80;4.40;;;;;;;40.05;28.77;99566.86;104893;1271;73681;-68
2022/08/17 09:16:38;;;;;;;8.50;3.70;;;;;;;40.08;27.80;99570.16;104807;1271;66864;-68
2022/08/17 09:20:17;;;;;;;7.70;3.70;;;;;;;40.08;27.44;99563.35;104907;1271;73511;-69
2022/08/17 09:23:37;;;;;;;10.40;4.20;;;;;;;40.09;27.59;99574.38;104239;1279;61275;-67
2022/08/17 09:27:12;;;;;;;9.50;4.30;;;;;;;40.29;27.41;99569.52;105762;1279;61716;-67
2022/08/17 09:30:08;;;;;;;12.80;4.50;;;;;;;40.47;27.24;99566.61;104747;1279;71353;-70
2022/08/17 09:33:05;;;;;;;9.80;4.20;;;;;;;40.56;27.26;99564.33;104695;1279;68062;-70
2022/08/17 09:36:08;;;;;;;9.00;4.20;;;;;;;40.56;27.09;99566.16;104671;1279;74402;-70
2022/08/17 09:39:27;;;;;;;12.70;4.40;;;;;;;40.51;27.36;99564.04;104225;1279;59707;-68
2022/08/17 09:42:37;;;;;;;8.50;4.10;;;;;;;40.59;26.99;99558.96;104538;1279;60567;-66
2022/08/17 09:45:34;;;;;;;8.70;4.20;;;;;;;40.57;26.78;99555.80;104110;1281;73966;-68
2022/08/17 09:48:42;;;;;;;8.70;4.60;;;;;;;40.57;27.29;99551.33;104264;1279;69676;-71
2022/08/17 09:51:44;;;;;;;8.90;4.80;;;;;;;40.64;26.79;99549.23;104605;1279;74733;-67
2022/08/17 09:54:38;;;;;;;11.10;4.40;;;;;;;40.82;27.16;99557.46;104444;1280;59774;-69
2022/08/17 09:57:46;;;;;;;8.30;3.90;;;;;;;40.84;27.27;99555.13;104205;1279;60580;-67
2022/08/17 10:00:48;;;;;;;13.10;7.30;;;;;;;40.67;27.36;99550.70;105475;1271;73610;-69
2022/08/17 10:03:58;;;;;;;8.00;4.30;;;;;;;40.45;27.38;99550.07;105334;1271;69112;-66
2022/08/17 10:06:57;;;;;;;10.10;5.20;;;;;;;40.34;27.76;99548.26;104928;1271;73492;-69
2022/08/17 10:10:01;;;;;;;10.50;4.60;;;;;;;40.32;27.90;99550.56;105022;1271;59359;-69
2022/08/17 10:13:29;;;;;;;9.20;4.20;;;;;;;40.50;27.74;99553.14;105327;1271;59831;-68
2022/08/17 10:16:39;;;;;;;9.10;5.20;;;;;;;40.48;27.76;99552.92;104699;1271;74371;-67
2022/08/17 10:20:02;;;;;;;8.70;4.20;;;;;;;40.55;27.36;99552.09;105216;1271;68202;-68
2022/08/17 10:26:25;;;;;;;9.80;4.40;;;;;;;40.51;27.46;99549.86;105262;1271;59346;-72
2022/08/17 10:29:52;;;;;;;8.90;4.50;;;;;;;40.28;27.98;99549.45;105195;1273;60572;-68
2022/08/17 10:32:58;;;;;;;9.30;4.50;;;;;;;40.21;28.09;99547.77;104936;1271;73941;-69
2022/08/17 10:36:20;;;;;;;8.20;4.60;;;;;;;40.10;27.94;99547.05;104779;1271;68875;-69
2022/08/17 10:39:52;;;;;;;9.90;4.50;;;;;;;40.09;27.91;99549.39;105342;1271;72979;-69
2022/08/17 10:42:59;;;;;;;8.10;4.40;;;;;;;40.05;28.04;99556.53;105187;1271;59645;-68
2022/08/17 10:46:07;;;;;;;8.40;4.30;;;;;;;39.77;28.07;99564.73;105199;1271;61108;-67
2022/08/17 10:49:19;;;;;;;8.60;4.30;;;;;;;39.65;28.59;99562.83;105189;1271;73170;-68
2022/08/17 10:52:26;;;;;;;9.50;5.00;;;;;;;39.64;28.32;99563.41;104788;1271;68788;-73
2022/08/17 10:55:17;;;;;;;9.30;4.70;;;;;;;39.50;28.99;99569.56;105284;1271;71591;-74
2022/08/17 10:59:00;;;;;;;8.80;4.80;;;;;;;39.46;29.21;99561.47;105169;1271;59275;-73
2022/08/17 11:01:48;;;;;;;9.80;4.90;;;;;;;39.56;29.47;99559.62;105104;1271;60486;-72
2022/08/17 11:04:55;;;;;;;11.20;5.00;;;;;;;39.63;29.37;99550.79;104935;1271;72936;-74
2022/08/17 11:08:20;;;;;;;8.80;4.50;;;;;;;39.60;29.20;99559.72;105450;1271;68799;-72
2022/08/17 11:11:34;;;;;;;8.40;4.80;;;;;;;39.53;29.35;99554.77;105083;1271;74746;-74
2022/08/17 11:14:34;;;;;;;9.40;5.10;;;;;;;39.47;29.70;99554.33;105145;1271;59407;-74
2022/08/17 11:18:00;;;;;;;8.80;5.30;;;;;;;39.39;29.57;99560.30;105170;1271;62012;-74
2022/08/17 11:21:26;;;;;;;9.90;5.80;;;;;;;39.29;29.46;99559.17;105236;1271;72431;-74
2022/08/17 11:24:41;;;;;;;10.00;5.70;;;;;;;39.22;29.66;99560.41;105312;1271;68542;-74
2022/08/17 11:27:35;;;;;;;11.10;7.50;;;;;;;38.87;29.90;99554.72;104968;1274;74423;-76
2022/08/17 11:30:47;;;;;;;9.80;5.00;;;;;;;38.22;30.01;99558.85;105004;1271;59332;-76
2022/08/17 11:33:43;;;;;;;10.30;5.30;;;;;;;37.76;31.08;99560.08;105287;1271;62043;-73
2022/08/17 11:36:45;;;;;;;9.40;4.50;;;;;;;37.37;31.52;99563.45;105404;1271;73514;-74
2022/08/17 11:40:33;;;;;;;8.20;4.90;;;;;;;36.95;31.85;99561.83;105047;1271;66981;-73
2022/08/17 11:43:56;;;;;;;9.50;4.90;;;;;;;36.32;32.88;99558.13;104904;1279;73396;-73
2022/08/17 11:54:29;;;;;;;9.10;5.20;;;;;;;35.12;34.23;99565.02;104394;1279;72476;-72
2022/08/17 11:57:28;;;;;;;8.90;4.80;;;;;;;34.72;33.92;99556.06;104387;1279;68174;-73
2022/08/17 12:00:43;;;;;;;9.70;5.10;;;;;;;34.40;34.59;99560.34;104445;1279;73197;-74
2022/08/17 12:03:32;;;;;;;8.90;5.00;;;;;;;34.03;36.24;99563.05;104714;1279;59445;-75
2022/08/17 12:06:26;;;;;;;8.70;5.30;;;;;;;33.62;36.07;99565.18;104504;1279;60490;-76
2022/08/17 12:09:26;;;;;;;8.90;5.20;;;;;;;32.93;36.40;99566.50;104491;1279;71915;-75
2022/08/17 12:12:28;;;;;;;8.70;5.20;;;;;;;32.36;38.08;99561.94;104499;1279;68504;-76
2022/08/17 12:15:27;;;;;;;10.10;5.10;;;;;;;31.94;38.98;99561.63;104498;1280;74042;-75
2022/08/17 12:18:31;;;;;;;9.90;6.20;;;;;;;31.60;39.82;99560.56;104963;1271;59619;-75
2022/08/17 12:21:49;;;;;;;9.70;5.30;;;;;;;31.26;39.82;99564.61;104965;1271;60670;-74
2022/08/17 12:24:54;;;;;;;9.70;5.60;;;;;;;30.92;40.55;99568.05;105184;1271;72918;-72
2022/08/17 12:27:50;;;;;;;9.70;5.00;;;;;;;30.64;41.05;99569.59;105260;1271;67960;-74
2022/08/17 12:31:00;;;;;;;10.40;5.30;;;;;;;30.35;41.33;99577.59;105036;1271;72861;-72
2022/08/17 12:33:52;;;;;;;9.00;4.70;;;;;;;30.22;41.45;99582.08;105170;1271;59256;-74
2022/08/17 12:36:40;;;;;;;9.10;4.80;;;;;;;29.99;41.49;99579.46;105027;1270;59292;-72
2022/08/17 12:39:29;;;;;;;10.40;5.00;;;;;;;29.81;42.63;99580.02;105051;1271;73246;-72
2022/08/17 12:42:36;;;;;;;9.60;5.20;;;;;;;29.70;43.20;99580.73;105354;1271;66793;-72
2022/08/17 12:45:29;;;;;;;9.90;5.50;;;;;;;29.64;43.77;99587.18;104955;1271;72965;-71
2022/08/17 12:48:25;;;;;;;10.50;5.00;;;;;;;29.62;43.87;99588.27;105168;1271;59406;-74
2022/08/17 12:51:13;;;;;;;9.80;4.80;;;;;;;29.56;43.85;99593.12;105278;1271;60480;-73
2022/08/17 12:54:01;;;;;;;9.10;4.80;;;;;;;29.41;43.67;99591.95;105096;1271;73927;-76
2022/08/17 12:56:50;;;;;;;8.60;4.40;;;;;;;29.32;43.43;99584.90;105007;1271;69640;-77
2022/08/17 12:59:48;;;;;;;8.20;4.30;;;;;;;29.25;42.94;99586.87;105097;1270;73483;-72
2022/08/17 13:02:52;;;;;;;8.70;5.20;;;;;;;29.16;43.29;99583.36;105637;1271;59630;-73
2022/08/17 13:05:53;;;;;;;8.00;4.50;;;;;;;29.10;44.22;99586.17;105144;1271;61083;-74
2022/08/17 13:08:46;;;;;;;9.40;4.90;;;;;;;28.99;44.93;99583.08;105111;1271;72477;-73
2022/08/17 13:11:34;;;;;;;13.10;6.20;;;;;;;28.99;45.60;99582.73;105291;1271;69610;-74
2022/08/17 13:14:22;;;;;;;9.60;5.70;;;;;;;28.91;45.21;99579.50;105035;1271;73669;-73
2022/08/17 13:17:12;;;;;;;9.70;5.50;;;;;;;28.77;45.67;99582.98;105095;1271;59387;-74
2022/08/17 13:20:03;;;;;;;9.70;5.50;;;;;;;28.66;46.71;99584.84;105030;1271;60959;-75
2022/08/17 13:23:00;;;;;;;11.40;5.50;;;;;;;28.65;46.63;99587.18;105310;1271;72008;-76
2022/08/17 13:26:02;;;;;;;11.90;5.80;;;;;;;28.61;46.92;99588.94;105112;1271;68017;-74
2022/08/17 13:28:50;;;;;;;9.20;5.40;;;;;;;28.59;47.23;99588.26;104941;1271;70611;-75
2022/08/17 13:31:42;;;;;;;10.60;6.00;;;;;;;28.62;47.24;99589.41;105021;1271;59406;-75
2022/08/17 13:34:55;;;;;;;14.00;9.20;;;;;;;28.63;47.50;99589.91;105409;1271;60814;-74
2022/08/17 13:38:35;;;;;;;10.50;6.30;;;;;;;28.55;47.35;99587.59;105302;1271;73955;-77
2022/08/17 13:41:36;;;;;;;12.50;6.00;;;;;;;28.44;46.66;99590.82;105117;1271;69936;-72
2022/08/17 13:44:39;;;;;;;10.10;6.20;;;;;;;28.39;47.65;99591.17;105027;1271;73076;-76
2022/08/17 13:47:27;;;;;;;13.60;8.20;;;;;;;28.38;48.16;99592.31;105823;1272;59338;-76
2022/08/17 13:50:20;;;;;;;11.50;6.80;;;;;;;28.38;47.93;99588.15;105646;1271;60883;-75
2022/08/17 13:53:21;;;;;;;10.40;6.70;;;;;;;28.31;48.18;99588.41;105343;1271;71382;-74
2022/08/17 13:56:37;;;;;;;11.60;5.70;;;;;;;28.22;47.74;99587.49;105309;1271;66786;-75
2022/08/17 13:59:40;;;;;;;11.00;5.40;;;;;;;28.15;48.24;99592.41;104823;1271;1468674;-75
2022/08/17 14:02:42;;;;;;;8.70;5.00;;;;;;;28.16;48.19;99591.84;106166;1271;59279;-75
2022/08/17 14:05:31;;;;;;;10.10;5.90;;;;;;;28.18;47.86;99590.77;105149;1271;60490;-78
2022/08/17 14:08:19;;;;;;;10.00;5.80;;;;;;;28.19;47.88;99586.13;105238;1271;73946;-75
2022/08/17 14:11:07;;;;;;;10.50;5.30;;;;;;;28.19;47.37;99583.99;105125;1272;67019;-78